sensor_id;sensor_type;location;lat;lon;timestamp;temperature;humidity
11944;DHT22;6031;50.220;10.122;2023-04-01T00:02:20;8.60;1.00
11944;DHT22;6031;50.220;10.122;2023-04-01T00:04:46;8.50;1.00
11944;DHT22;6031;50.220;10.122;2023-04-01T00:07:11;8.60;1.00
11944;DHT22;6031;50.220;10.122;2023-04-01T00:09:37;8.60;1.00
11944;DHT22;6031;50.220;10.122;2023-04-01T00:12:03;8.60;1.00
11944;DHT22;6031;50.220;10.122;2023-04-01T00:14:29;8.70;1.00
11944;DHT22;6031;50.220;10.122;2023-04-01T00:16:55;8.60;1.00
11944;DHT22;6031;50.220;10.122;2023-04-01T00:19:20;8.70;1.00
11944;DHT22;6031;50.220;10.122;2023-04-01T00:21:46;8.70;1.00
11944;DHT22;6031;50.220;10.122;2023-04-01T00:24:11;8.60;1.00
11944;DHT22;6031;50.220;10.122;2023-04-01T00:26:37;8.60;1.00
11944;DHT22;6031;50.220;10.122;2023-04-01T00:29:02;8.60;1.00
11944;DHT22;6031;50.220;10.122;2023-04-01T00:31:28;8.50;1.00
11944;DHT22;6031;50.220;10.122;2023-04-01T00:33:54;8.50;1.00
11944;DHT22;6031;50.220;10.122;2023-04-01T00:36:21;8.50;1.00
11944;DHT22;6031;50.220;10.122;2023-04-01T00:38:47;8.60;1.00
11944;DHT22;6031;50.220;10.122;2023-04-01T00:41:14;8.60;1.00
11944;DHT22;6031;50.220;10.122;2023-04-01T00:43:46;8.60;1.00
11944;DHT22;6031;50.220;10.122;2023-04-01T00:46:11;8.60;1.00
11944;DHT22;6031;50.220;10.122;2023-04-01T00:48:41;8.60;1.00
11944;DHT22;6031;50.220;10.122;2023-04-01T00:51:14;8.60;1.00
11944;DHT22;6031;50.220;10.122;2023-04-01T00:53:47;8.70;1.00
11944;DHT22;6031;50.220;10.122;2023-04-01T00:56:16;8.70;1.00
11944;DHT22;6031;50.220;10.122;2023-04-01T00:58:47;8.70;99.90
11944;DHT22;6031;50.220;10.122;2023-04-01T01:01:13;8.70;1.00
11944;DHT22;6031;50.220;10.122;2023-04-01T01:03:39;8.70;1.00
11944;DHT22;6031;50.220;10.122;2023-04-01T01:06:23;8.80;99.90
11944;DHT22;6031;50.220;10.122;2023-04-01T01:09:06;8.80;99.90
11944;DHT22;6031;50.220;10.122;2023-04-01T01:11:55;8.70;99.90
11944;DHT22;6031;50.220;10.122;2023-04-01T01:15:02;8.80;99.90
11944;DHT22;6031;50.220;10.122;2023-04-01T01:28:47;8.70;1.00
11944;DHT22;6031;50.220;10.122;2023-04-01T01:31:26;8.70;99.90
11944;DHT22;6031;50.220;10.122;2023-04-01T01:34:20;8.80;99.90
11944;DHT22;6031;50.220;10.122;2023-04-01T01:36:53;8.80;10.00
11944;DHT22;6031;50.220;10.122;2023-04-01T01:39:21;8.80;99.90
11944;DHT22;6031;50.220;10.122;2023-04-01T01:41:52;8.70;99.90
11944;DHT22;6031;50.220;10.122;2023-04-01T01:44:19;8.70;99.90
11944;DHT22;6031;50.220;10.122;2023-04-01T01:46:47;8.70;1.00
11944;DHT22;6031;50.220;10.122;2023-04-01T01:49:14;8.80;1.00
11944;DHT22;6031;50.220;10.122;2023-04-01T01:51:40;8.80;99.90
11944;DHT22;6031;50.220;10.122;2023-04-01T01:54:12;8.80;99.90
11944;DHT22;6031;50.220;10.122;2023-04-01T01:56:39;8.90;99.90
11944;DHT22;6031;50.220;10.122;2023-04-01T01:59:08;8.80;1.00
11944;DHT22;6031;50.220;10.122;2023-04-01T02:01:39;8.80;1.00
11944;DHT22;6031;50.220;10.122;2023-04-01T02:04:07;8.80;99.90
11944;DHT22;6031;50.220;10.122;2023-04-01T02:06:37;8.70;99.90
11944;DHT22;6031;50.220;10.122;2023-04-01T02:09:07;8.80;99.90
11944;DHT22;6031;50.220;10.122;2023-04-01T02:14:35;8.70;31.10
11944;DHT22;6031;50.220;10.122;2023-04-01T02:17:18;8.70;1.00
11944;DHT22;6031;50.220;10.122;2023-04-01T02:22:20;8.60;99.90
11944;DHT22;6031;50.220;10.122;2023-04-01T02:24:48;8.60;1.00
11944;DHT22;6031;50.220;10.122;2023-04-01T02:27:15;8.60;99.90
11944;DHT22;6031;50.220;10.122;2023-04-01T02:29:41;8.60;99.90
11944;DHT22;6031;50.220;10.122;2023-04-01T02:32:08;8.60;1.00
11944;DHT22;6031;50.220;10.122;2023-04-01T02:34:34;8.60;99.90
11944;DHT22;6031;50.220;10.122;2023-04-01T02:37:00;8.60;90.00
11944;DHT22;6031;50.220;10.122;2023-04-01T02:39:26;8.50;99.90
11944;DHT22;6031;50.220;10.122;2023-04-01T02:41:52;8.50;1.00
11944;DHT22;6031;50.220;10.122;2023-04-01T02:44:17;8.60;1.00
11944;DHT22;6031;50.220;10.122;2023-04-01T02:46:43;8.60;1.00
11944;DHT22;6031;50.220;10.122;2023-04-01T02:49:09;8.60;1.00
11944;DHT22;6031;50.220;10.122;2023-04-01T02:51:34;8.70;1.00
11944;DHT22;6031;50.220;10.122;2023-04-01T02:54:00;8.60;99.90
11944;DHT22;6031;50.220;10.122;2023-04-01T02:56:26;8.60;1.00
11944;DHT22;6031;50.220;10.122;2023-04-01T02:58:52;8.60;1.00
11944;DHT22;6031;50.220;10.122;2023-04-01T03:01:18;8.60;99.90
11944;DHT22;6031;50.220;10.122;2023-04-01T03:03:43;8.60;1.00
11944;DHT22;6031;50.220;10.122;2023-04-01T03:06:12;8.60;49.30
11944;DHT22;6031;50.220;10.122;2023-04-01T03:08:38;8.60;1.00
11944;DHT22;6031;50.220;10.122;2023-04-01T03:11:03;8.60;99.90
11944;DHT22;6031;50.220;10.122;2023-04-01T03:13:29;8.60;99.90
11944;DHT22;6031;50.220;10.122;2023-04-01T03:15:54;8.60;99.90
11944;DHT22;6031;50.220;10.122;2023-04-01T03:18:20;8.50;1.00
11944;DHT22;6031;50.220;10.122;2023-04-01T03:20:46;8.60;1.00
11944;DHT22;6031;50.220;10.122;2023-04-01T03:23:12;8.50;1.00
11944;DHT22;6031;50.220;10.122;2023-04-01T03:25:38;8.50;1.00
11944;DHT22;6031;50.220;10.122;2023-04-01T03:28:04;8.40;42.10
11944;DHT22;6031;50.220;10.122;2023-04-01T03:30:30;8.40;99.90
11944;DHT22;6031;50.220;10.122;2023-04-01T03:32:57;8.40;99.90
11944;DHT22;6031;50.220;10.122;2023-04-01T03:35:23;8.50;99.90
11944;DHT22;6031;50.220;10.122;2023-04-01T03:37:50;8.60;99.90
11944;DHT22;6031;50.220;10.122;2023-04-01T03:40:16;8.50;1.00
11944;DHT22;6031;50.220;10.122;2023-04-01T03:42:41;8.50;1.00
11944;DHT22;6031;50.220;10.122;2023-04-01T03:45:07;8.50;1.00
11944;DHT22;6031;50.220;10.122;2023-04-01T03:47:33;8.50;99.90
11944;DHT22;6031;50.220;10.122;2023-04-01T03:49:58;8.50;99.90
11944;DHT22;6031;50.220;10.122;2023-04-01T03:52:24;8.50;99.90
11944;DHT22;6031;50.220;10.122;2023-04-01T03:54:50;8.60;99.90
11944;DHT22;6031;50.220;10.122;2023-04-01T03:57:15;8.70;1.00
11944;DHT22;6031;50.220;10.122;2023-04-01T03:59:41;8.70;1.00
11944;DHT22;6031;50.220;10.122;2023-04-01T04:02:06;8.80;99.90
11944;DHT22;6031;50.220;10.122;2023-04-01T04:04:32;8.70;1.00
11944;DHT22;6031;50.220;10.122;2023-04-01T04:06:57;8.70;1.00
11944;DHT22;6031;50.220;10.122;2023-04-01T04:09:23;8.80;1.00
11944;DHT22;6031;50.220;10.122;2023-04-01T04:11:49;8.70;1.00
11944;DHT22;6031;50.220;10.122;2023-04-01T04:14:15;8.70;56.30
11944;DHT22;6031;50.220;10.122;2023-04-01T04:16:40;8.70;82.30
11944;DHT22;6031;50.220;10.122;2023-04-01T04:19:06;8.70;1.00
11944;DHT22;6031;50.220;10.122;2023-04-01T04:21:32;8.60;99.90
11944;DHT22;6031;50.220;10.122;2023-04-01T04:23:59;8.60;31.70
11944;DHT22;6031;50.220;10.122;2023-04-01T04:26:26;8.60;99.90
11944;DHT22;6031;50.220;10.122;2023-04-01T04:28:51;8.60;1.00
11944;DHT22;6031;50.220;10.122;2023-04-01T04:31:22;8.50;1.00
11944;DHT22;6031;50.220;10.122;2023-04-01T04:33:48;8.60;1.00
11944;DHT22;6031;50.220;10.122;2023-04-01T04:36:14;8.50;99.90
11944;DHT22;6031;50.220;10.122;2023-04-01T04:38:40;8.50;99.90
11944;DHT22;6031;50.220;10.122;2023-04-01T04:41:17;8.60;99.90
11944;DHT22;6031;50.220;10.122;2023-04-01T04:43:52;8.60;1.00
11944;DHT22;6031;50.220;10.122;2023-04-01T04:46:19;8.60;99.90
11944;DHT22;6031;50.220;10.122;2023-04-01T04:48:45;8.60;1.00
11944;DHT22;6031;50.220;10.122;2023-04-01T04:51:18;8.60;99.90
11944;DHT22;6031;50.220;10.122;2023-04-01T04:53:46;8.60;71.90
11944;DHT22;6031;50.220;10.122;2023-04-01T04:56:12;8.60;1.00
11944;DHT22;6031;50.220;10.122;2023-04-01T04:58:39;8.50;1.00
11944;DHT22;6031;50.220;10.122;2023-04-01T05:01:13;8.60;99.90
11944;DHT22;6031;50.220;10.122;2023-04-01T05:03:39;8.50;99.90
11944;DHT22;6031;50.220;10.122;2023-04-01T05:06:06;8.60;1.00
11944;DHT22;6031;50.220;10.122;2023-04-01T05:08:32;8.60;1.00
11944;DHT22;6031;50.220;10.122;2023-04-01T05:10:58;8.40;1.00
11944;DHT22;6031;50.220;10.122;2023-04-01T05:13:24;8.50;99.90
11944;DHT22;6031;50.220;10.122;2023-04-01T05:15:50;8.50;99.90
11944;DHT22;6031;50.220;10.122;2023-04-01T05:18:15;8.40;1.00
11944;DHT22;6031;50.220;10.122;2023-04-01T05:20:48;8.50;99.90
11944;DHT22;6031;50.220;10.122;2023-04-01T05:23:14;8.50;99.90
11944;DHT22;6031;50.220;10.122;2023-04-01T05:25:40;8.40;99.90
11944;DHT22;6031;50.220;10.122;2023-04-01T05:28:05;8.40;99.90
11944;DHT22;6031;50.220;10.122;2023-04-01T05:30:31;8.30;99.90
11944;DHT22;6031;50.220;10.122;2023-04-01T05:32:56;8.30;1.00
11944;DHT22;6031;50.220;10.122;2023-04-01T05:35:22;8.30;1.00
11944;DHT22;6031;50.220;10.122;2023-04-01T05:37:48;8.30;1.00
11944;DHT22;6031;50.220;10.122;2023-04-01T05:40:13;8.30;1.00
11944;DHT22;6031;50.220;10.122;2023-04-01T05:42:39;8.30;1.00
11944;DHT22;6031;50.220;10.122;2023-04-01T05:45:05;8.30;1.00
11944;DHT22;6031;50.220;10.122;2023-04-01T05:47:31;8.30;32.70
11944;DHT22;6031;50.220;10.122;2023-04-01T05:49:56;8.20;1.00
11944;DHT22;6031;50.220;10.122;2023-04-01T05:52:22;8.30;1.00
11944;DHT22;6031;50.220;10.122;2023-04-01T05:54:47;8.30;1.00
11944;DHT22;6031;50.220;10.122;2023-04-01T05:57:13;8.30;99.90
11944;DHT22;6031;50.220;10.122;2023-04-01T05:59:38;8.20;95.60
11944;DHT22;6031;50.220;10.122;2023-04-01T06:02:04;8.30;99.90
11944;DHT22;6031;50.220;10.122;2023-04-01T06:04:37;8.30;99.90
11944;DHT22;6031;50.220;10.122;2023-04-01T06:07:15;8.30;72.60
11944;DHT22;6031;50.220;10.122;2023-04-01T06:09:42;8.30;4.30
11944;DHT22;6031;50.220;10.122;2023-04-01T06:15:09;8.30;99.90
11944;DHT22;6031;50.220;10.122;2023-04-01T06:20:27;8.30;1.00
11944;DHT22;6031;50.220;10.122;2023-04-01T06:25:50;8.40;7.70
11944;DHT22;6031;50.220;10.122;2023-04-01T06:28:44;8.40;1.00
11944;DHT22;6031;50.220;10.122;2023-04-01T06:31:25;8.40;1.00
11944;DHT22;6031;50.220;10.122;2023-04-01T06:36:57;8.40;96.50
11944;DHT22;6031;50.220;10.122;2023-04-01T06:39:33;8.30;99.20
11944;DHT22;6031;50.220;10.122;2023-04-01T06:48:06;8.40;99.90
11944;DHT22;6031;50.220;10.122;2023-04-01T06:56:01;8.50;99.90
11944;DHT22;6031;50.220;10.122;2023-04-01T06:58:33;8.40;99.90
11944;DHT22;6031;50.220;10.122;2023-04-01T07:01:09;8.50;99.90
11944;DHT22;6031;50.220;10.122;2023-04-01T07:03:43;8.50;99.90
11944;DHT22;6031;50.220;10.122;2023-04-01T07:06:35;8.50;99.90
11944;DHT22;6031;50.220;10.122;2023-04-01T07:09:05;8.60;99.90
11944;DHT22;6031;50.220;10.122;2023-04-01T07:11:34;8.50;99.90
11944;DHT22;6031;50.220;10.122;2023-04-01T07:14:02;8.50;99.90
11944;DHT22;6031;50.220;10.122;2023-04-01T07:19:34;8.50;99.90
11944;DHT22;6031;50.220;10.122;2023-04-01T07:22:05;8.50;99.90
11944;DHT22;6031;50.220;10.122;2023-04-01T07:24:44;8.60;99.90
11944;DHT22;6031;50.220;10.122;2023-04-01T07:27:11;8.70;99.90
11944;DHT22;6031;50.220;10.122;2023-04-01T07:29:37;8.70;99.90
11944;DHT22;6031;50.220;10.122;2023-04-01T07:32:21;8.80;99.90
11944;DHT22;6031;50.220;10.122;2023-04-01T07:38:11;8.80;6.00
11944;DHT22;6031;50.220;10.122;2023-04-01T07:41:12;8.90;99.90
11944;DHT22;6031;50.220;10.122;2023-04-01T07:43:42;9.00;48.20
11944;DHT22;6031;50.220;10.122;2023-04-01T07:46:34;9.00;99.90
11944;DHT22;6031;50.220;10.122;2023-04-01T07:50:07;9.10;57.90
11944;DHT22;6031;50.220;10.122;2023-04-01T07:51:59;9.20;60.20
11944;DHT22;6031;50.220;10.122;2023-04-01T07:54:47;9.00;1.00
11944;DHT22;6031;50.220;10.122;2023-04-01T08:00:16;8.90;1.00
11944;DHT22;6031;50.220;10.122;2023-04-01T08:02:56;8.90;99.90
11944;DHT22;6031;50.220;10.122;2023-04-01T08:05:29;9.00;53.40
11944;DHT22;6031;50.220;10.122;2023-04-01T08:08:29;9.00;1.00
11944;DHT22;6031;50.220;10.122;2023-04-01T08:11:21;9.00;1.00
11944;DHT22;6031;50.220;10.122;2023-04-01T08:16:56;9.10;80.00
11944;DHT22;6031;50.220;10.122;2023-04-01T08:19:49;9.10;1.00
11944;DHT22;6031;50.220;10.122;2023-04-01T08:22:27;9.20;1.00
11944;DHT22;6031;50.220;10.122;2023-04-01T08:24:55;9.30;1.00
11944;DHT22;6031;50.220;10.122;2023-04-01T08:27:39;9.40;1.00
11944;DHT22;6031;50.220;10.122;2023-04-01T08:30:20;9.20;1.00
11944;DHT22;6031;50.220;10.122;2023-04-01T08:32:59;9.20;1.00
11944;DHT22;6031;50.220;10.122;2023-04-01T08:35:30;9.20;99.90
11944;DHT22;6031;50.220;10.122;2023-04-01T08:38:00;9.10;1.00
11944;DHT22;6031;50.220;10.122;2023-04-01T08:40:49;9.10;99.90
11944;DHT22;6031;50.220;10.122;2023-04-01T08:49:26;9.20;99.90
11944;DHT22;6031;50.220;10.122;2023-04-01T08:52:18;9.10;1.00
11944;DHT22;6031;50.220;10.122;2023-04-01T08:55:02;9.10;49.70
11944;DHT22;6031;50.220;10.122;2023-04-01T09:00:14;9.20;99.90
11944;DHT22;6031;50.220;10.122;2023-04-01T09:02:49;9.20;99.90
11944;DHT22;6031;50.220;10.122;2023-04-01T09:05:36;9.30;99.90
11944;DHT22;6031;50.220;10.122;2023-04-01T09:11:05;9.70;99.90
11944;DHT22;6031;50.220;10.122;2023-04-01T09:13:41;9.60;1.00
11944;DHT22;6031;50.220;10.122;2023-04-01T09:22:08;9.20;1.00
11944;DHT22;6031;50.220;10.122;2023-04-01T09:27:29;9.00;99.90
11944;DHT22;6031;50.220;10.122;2023-04-01T09:32:49;9.20;99.90
11944;DHT22;6031;50.220;10.122;2023-04-01T09:35:48;9.10;99.90
11944;DHT22;6031;50.220;10.122;2023-04-01T09:38:28;9.10;99.90
11944;DHT22;6031;50.220;10.122;2023-04-01T09:41:06;9.00;99.90
11944;DHT22;6031;50.220;10.122;2023-04-01T09:43:49;9.10;99.90
11944;DHT22;6031;50.220;10.122;2023-04-01T09:49:33;9.30;99.90
11944;DHT22;6031;50.220;10.122;2023-04-01T09:52:20;9.40;99.90
11944;DHT22;6031;50.220;10.122;2023-04-01T09:55:12;9.30;99.90
11944;DHT22;6031;50.220;10.122;2023-04-01T10:01:14;9.40;99.90
11944;DHT22;6031;50.220;10.122;2023-04-01T10:06:58;9.70;99.90
11944;DHT22;6031;50.220;10.122;2023-04-01T10:10:07;9.80;1.00
11944;DHT22;6031;50.220;10.122;2023-04-01T10:18:41;10.00;99.90
11944;DHT22;6031;50.220;10.122;2023-04-01T10:27:33;10.10;1.00
11944;DHT22;6031;50.220;10.122;2023-04-01T11:01:36;10.80;1.00
11944;DHT22;6031;50.220;10.122;2023-04-01T11:07:08;10.90;1.00
11944;DHT22;6031;50.220;10.122;2023-04-01T11:24:04;11.90;99.90
11944;DHT22;6031;50.220;10.122;2023-04-01T11:26:52;12.30;1.00
11944;DHT22;6031;50.220;10.122;2023-04-01T11:43:37;12.20;99.90
11944;DHT22;6031;50.220;10.122;2023-04-01T11:51:44;12.30;1.00
11944;DHT22;6031;50.220;10.122;2023-04-01T11:54:38;12.50;1.00
11944;DHT22;6031;50.220;10.122;2023-04-01T11:57:41;12.60;1.00
11944;DHT22;6031;50.220;10.122;2023-04-01T12:09:22;12.80;1.00
11944;DHT22;6031;50.220;10.122;2023-04-01T12:12:12;12.50;1.00
11944;DHT22;6031;50.220;10.122;2023-04-01T12:17:34;12.10;1.00
11944;DHT22;6031;50.220;10.122;2023-04-01T12:20:29;12.10;99.90
11944;DHT22;6031;50.220;10.122;2023-04-01T12:25:59;12.20;1.00
11944;DHT22;6031;50.220;10.122;2023-04-01T12:28:41;12.30;99.90
11944;DHT22;6031;50.220;10.122;2023-04-01T12:39:33;11.70;99.90
11944;DHT22;6031;50.220;10.122;2023-04-01T12:42:32;11.30;99.90
11944;DHT22;6031;50.220;10.122;2023-04-01T12:50:48;11.60;88.30
11944;DHT22;6031;50.220;10.122;2023-04-01T12:56:46;11.80;1.00
11944;DHT22;6031;50.220;10.122;2023-04-01T12:59:25;11.80;1.00
11944;DHT22;6031;50.220;10.122;2023-04-01T13:07:47;12.20;99.90
11944;DHT22;6031;50.220;10.122;2023-04-01T13:13:05;11.80;24.70
11944;DHT22;6031;50.220;10.122;2023-04-01T13:22:01;11.50;1.00
11944;DHT22;6031;50.220;10.122;2023-04-01T13:24:12;11.40;1.00
11944;DHT22;6031;50.220;10.122;2023-04-01T13:26:57;11.40;1.00
11944;DHT22;6031;50.220;10.122;2023-04-01T13:29:33;11.40;1.00
11944;DHT22;6031;50.220;10.122;2023-04-01T13:32:12;11.50;1.00
11944;DHT22;6031;50.220;10.122;2023-04-01T13:35:01;11.50;1.00
11944;DHT22;6031;50.220;10.122;2023-04-01T13:37:46;11.70;1.00
11944;DHT22;6031;50.220;10.122;2023-04-01T13:45:42;11.00;1.00
11944;DHT22;6031;50.220;10.122;2023-04-01T13:48:33;11.00;99.90
11944;DHT22;6031;50.220;10.122;2023-04-01T13:56:48;11.10;99.90
11944;DHT22;6031;50.220;10.122;2023-04-01T13:59:40;11.20;75.70
11944;DHT22;6031;50.220;10.122;2023-04-01T14:05:12;11.10;99.90
11944;DHT22;6031;50.220;10.122;2023-04-01T14:10:36;11.30;99.90
11944;DHT22;6031;50.220;10.122;2023-04-01T14:16:03;11.10;99.90
11944;DHT22;6031;50.220;10.122;2023-04-01T14:18:33;11.10;99.90
11944;DHT22;6031;50.220;10.122;2023-04-01T14:26:35;11.10;99.90
11944;DHT22;6031;50.220;10.122;2023-04-01T14:31:58;10.90;99.90
11944;DHT22;6031;50.220;10.122;2023-04-01T14:34:50;10.70;99.90
11944;DHT22;6031;50.220;10.122;2023-04-01T14:37:34;10.70;99.90
11944;DHT22;6031;50.220;10.122;2023-04-01T14:40:20;10.70;99.90
11944;DHT22;6031;50.220;10.122;2023-04-01T14:43:14;10.70;99.90
11944;DHT22;6031;50.220;10.122;2023-04-01T14:48:38;10.60;99.90
11944;DHT22;6031;50.220;10.122;2023-04-01T14:51:15;10.70;99.90
11944;DHT22;6031;50.220;10.122;2023-04-01T14:53:57;10.90;99.90
11944;DHT22;6031;50.220;10.122;2023-04-01T14:56:40;10.90;99.90
11944;DHT22;6031;50.220;10.122;2023-04-01T15:01:56;11.30;87.00
11944;DHT22;6031;50.220;10.122;2023-04-01T15:04:28;11.30;1.00
11944;DHT22;6031;50.220;10.122;2023-04-01T15:07:04;11.10;1.00
11944;DHT22;6031;50.220;10.122;2023-04-01T15:12:29;11.10;90.80
11944;DHT22;6031;50.220;10.122;2023-04-01T15:18:17;11.20;1.00
11944;DHT22;6031;50.220;10.122;2023-04-01T15:29:30;10.60;99.90
11944;DHT22;6031;50.220;10.122;2023-04-01T15:34:57;10.60;99.90
11944;DHT22;6031;50.220;10.122;2023-04-01T15:37:47;10.50;99.90
11944;DHT22;6031;50.220;10.122;2023-04-01T15:40:27;10.50;99.90
11944;DHT22;6031;50.220;10.122;2023-04-01T15:43:05;10.50;99.90
11944;DHT22;6031;50.220;10.122;2023-04-01T15:45:47;10.50;99.90
11944;DHT22;6031;50.220;10.122;2023-04-01T15:53:50;10.40;99.90
11944;DHT22;6031;50.220;10.122;2023-04-01T15:56:26;10.30;99.90
11944;DHT22;6031;50.220;10.122;2023-04-01T15:59:44;10.30;99.90
11944;DHT22;6031;50.220;10.122;2023-04-01T16:08:05;10.10;99.90
11944;DHT22;6031;50.220;10.122;2023-04-01T16:10:44;10.00;99.90
11944;DHT22;6031;50.220;10.122;2023-04-01T16:24:34;9.90;99.90
11944;DHT22;6031;50.220;10.122;2023-04-01T16:27:12;9.90;99.90
11944;DHT22;6031;50.220;10.122;2023-04-01T16:42:56;9.70;99.90
11944;DHT22;6031;50.220;10.122;2023-04-01T16:45:36;9.70;99.90
11944;DHT22;6031;50.220;10.122;2023-04-01T16:48:18;9.70;99.90
11944;DHT22;6031;50.220;10.122;2023-04-01T16:51:04;9.70;99.90
11944;DHT22;6031;50.220;10.122;2023-04-01T16:53:42;9.60;99.90
11944;DHT22;6031;50.220;10.122;2023-04-01T16:56:24;9.50;99.90
11944;DHT22;6031;50.220;10.122;2023-04-01T16:59:10;9.50;99.90
11944;DHT22;6031;50.220;10.122;2023-04-01T17:01:48;9.50;99.90
11944;DHT22;6031;50.220;10.122;2023-04-01T17:04:31;9.50;99.90
11944;DHT22;6031;50.220;10.122;2023-04-01T17:07:23;9.50;99.90
11944;DHT22;6031;50.220;10.122;2023-04-01T17:10:10;9.50;99.90
11944;DHT22;6031;50.220;10.122;2023-04-01T17:12:51;9.40;99.90
11944;DHT22;6031;50.220;10.122;2023-04-01T17:15:46;9.50;99.90
11944;DHT22;6031;50.220;10.122;2023-04-01T17:21:13;9.50;99.90
11944;DHT22;6031;50.220;10.122;2023-04-01T17:23:50;9.50;99.90
11944;DHT22;6031;50.220;10.122;2023-04-01T17:26:42;9.50;99.90
11944;DHT22;6031;50.220;10.122;2023-04-01T17:29:22;9.40;99.90
11944;DHT22;6031;50.220;10.122;2023-04-01T17:31:57;9.40;99.90
11944;DHT22;6031;50.220;10.122;2023-04-01T17:40:44;9.40;99.90
11944;DHT22;6031;50.220;10.122;2023-04-01T17:45:53;9.30;99.90
11944;DHT22;6031;50.220;10.122;2023-04-01T17:48:43;9.30;99.90
11944;DHT22;6031;50.220;10.122;2023-04-01T17:54:25;9.20;99.90
11944;DHT22;6031;50.220;10.122;2023-04-01T18:00:03;9.30;99.90
11944;DHT22;6031;50.220;10.122;2023-04-01T18:05:30;9.30;99.90
11944;DHT22;6031;50.220;10.122;2023-04-01T18:10:58;9.30;99.90
11944;DHT22;6031;50.220;10.122;2023-04-01T18:13:44;9.30;99.90
11944;DHT22;6031;50.220;10.122;2023-04-01T18:22:26;9.30;99.90
11944;DHT22;6031;50.220;10.122;2023-04-01T18:27:36;9.30;99.90
11944;DHT22;6031;50.220;10.122;2023-04-01T18:30:13;9.20;99.90
11944;DHT22;6031;50.220;10.122;2023-04-01T18:32:51;9.30;99.90
11944;DHT22;6031;50.220;10.122;2023-04-01T18:38:13;9.20;99.90
11944;DHT22;6031;50.220;10.122;2023-04-01T18:47:00;9.50;99.90
11944;DHT22;6031;50.220;10.122;2023-04-01T18:52:41;9.30;99.90
11944;DHT22;6031;50.220;10.122;2023-04-01T19:05:39;9.10;99.90
11944;DHT22;6031;50.220;10.122;2023-04-01T19:08:28;9.10;99.90
11944;DHT22;6031;50.220;10.122;2023-04-01T19:14:00;9.00;99.90
11944;DHT22;6031;50.220;10.122;2023-04-01T19:16:51;8.90;99.90
11944;DHT22;6031;50.220;10.122;2023-04-01T19:19:41;8.80;99.90
11944;DHT22;6031;50.220;10.122;2023-04-01T19:22:37;8.80;99.90
11944;DHT22;6031;50.220;10.122;2023-04-01T19:25:27;8.70;99.90
11944;DHT22;6031;50.220;10.122;2023-04-01T19:31:19;8.60;99.90
11944;DHT22;6031;50.220;10.122;2023-04-01T19:36:46;8.50;99.90
11944;DHT22;6031;50.220;10.122;2023-04-01T19:39:47;8.50;99.90
11944;DHT22;6031;50.220;10.122;2023-04-01T19:42:49;8.50;99.90
11944;DHT22;6031;50.220;10.122;2023-04-01T19:45:22;8.40;99.90
11944;DHT22;6031;50.220;10.122;2023-04-01T19:56:18;8.40;99.90
11944;DHT22;6031;50.220;10.122;2023-04-01T19:58:56;8.30;99.90
11944;DHT22;6031;50.220;10.122;2023-04-01T20:04:17;8.20;99.90
11944;DHT22;6031;50.220;10.122;2023-04-01T20:06:51;8.20;99.90
11944;DHT22;6031;50.220;10.122;2023-04-01T20:12:01;8.20;99.90
11944;DHT22;6031;50.220;10.122;2023-04-01T20:17:54;8.10;99.90
11944;DHT22;6031;50.220;10.122;2023-04-01T20:19:56;8.20;99.90
11944;DHT22;6031;50.220;10.122;2023-04-01T20:24:59;8.20;99.90
11944;DHT22;6031;50.220;10.122;2023-04-01T20:27:32;8.20;99.90
11944;DHT22;6031;50.220;10.122;2023-04-01T20:44:11;8.10;99.90
11944;DHT22;6031;50.220;10.122;2023-04-01T20:52:02;8.20;99.90
11944;DHT22;6031;50.220;10.122;2023-04-01T20:54:39;8.20;99.90
11944;DHT22;6031;50.220;10.122;2023-04-01T21:00:18;8.10;99.90
11944;DHT22;6031;50.220;10.122;2023-04-01T21:08:44;8.20;99.90
11944;DHT22;6031;50.220;10.122;2023-04-01T21:13:44;8.20;99.90
11944;DHT22;6031;50.220;10.122;2023-04-01T21:16:54;8.20;99.90
11944;DHT22;6031;50.220;10.122;2023-04-01T21:19:51;8.20;99.90
11944;DHT22;6031;50.220;10.122;2023-04-01T21:22:49;8.20;99.90
11944;DHT22;6031;50.220;10.122;2023-04-01T21:25:40;8.10;99.90
11944;DHT22;6031;50.220;10.122;2023-04-01T21:34:28;8.10;99.90
11944;DHT22;6031;50.220;10.122;2023-04-01T21:39:54;8.10;99.90
11944;DHT22;6031;50.220;10.122;2023-04-01T21:45:39;8.10;99.90
11944;DHT22;6031;50.220;10.122;2023-04-01T21:48:20;8.10;99.90
11944;DHT22;6031;50.220;10.122;2023-04-01T22:03:22;8.10;99.90
11944;DHT22;6031;50.220;10.122;2023-04-01T22:08:50;8.10;99.90
11944;DHT22;6031;50.220;10.122;2023-04-01T22:14:18;8.10;99.90
11944;DHT22;6031;50.220;10.122;2023-04-01T22:19:28;8.10;99.90
11944;DHT22;6031;50.220;10.122;2023-04-01T22:22:15;8.10;99.90
11944;DHT22;6031;50.220;10.122;2023-04-01T22:25:16;8.20;99.90
11944;DHT22;6031;50.220;10.122;2023-04-01T22:27:49;8.20;99.90
11944;DHT22;6031;50.220;10.122;2023-04-01T22:33:06;8.20;99.90
11944;DHT22;6031;50.220;10.122;2023-04-01T22:35:46;8.20;99.90
11944;DHT22;6031;50.220;10.122;2023-04-01T22:38:37;8.20;99.90
11944;DHT22;6031;50.220;10.122;2023-04-01T22:41:39;8.30;99.90
11944;DHT22;6031;50.220;10.122;2023-04-01T22:44:25;8.20;99.90
11944;DHT22;6031;50.220;10.122;2023-04-01T22:47:12;8.20;99.90
11944;DHT22;6031;50.220;10.122;2023-04-01T22:49:50;8.20;99.90
11944;DHT22;6031;50.220;10.122;2023-04-01T22:52:35;8.20;99.90
11944;DHT22;6031;50.220;10.122;2023-04-01T22:55:15;8.20;99.90
11944;DHT22;6031;50.220;10.122;2023-04-01T22:57:49;8.20;99.90
11944;DHT22;6031;50.220;10.122;2023-04-01T23:00:33;8.30;99.90
11944;DHT22;6031;50.220;10.122;2023-04-01T23:06:01;8.30;99.90
11944;DHT22;6031;50.220;10.122;2023-04-01T23:08:49;8.30;99.90
11944;DHT22;6031;50.220;10.122;2023-04-01T23:11:26;8.30;99.90
11944;DHT22;6031;50.220;10.122;2023-04-01T23:14:16;8.40;99.90
11944;DHT22;6031;50.220;10.122;2023-04-01T23:17:13;8.40;99.90
11944;DHT22;6031;50.220;10.122;2023-04-01T23:19:49;8.40;99.90
11944;DHT22;6031;50.220;10.122;2023-04-01T23:22:28;8.30;99.90
11944;DHT22;6031;50.220;10.122;2023-04-01T23:24:59;8.30;99.90
11944;DHT22;6031;50.220;10.122;2023-04-01T23:27:37;8.30;99.90
11944;DHT22;6031;50.220;10.122;2023-04-01T23:33:23;8.30;99.90
11944;DHT22;6031;50.220;10.122;2023-04-01T23:36:00;8.30;99.90
11944;DHT22;6031;50.220;10.122;2023-04-01T23:38:35;8.30;99.90
11944;DHT22;6031;50.220;10.122;2023-04-01T23:41:02;8.30;99.90
11944;DHT22;6031;50.220;10.122;2023-04-01T23:43:39;8.30;99.90
11944;DHT22;6031;50.220;10.122;2023-04-01T23:46:06;8.30;99.90
11944;DHT22;6031;50.220;10.122;2023-04-01T23:48:38;8.30;99.90
11944;DHT22;6031;50.220;10.122;2023-04-01T23:51:28;8.30;99.90
11944;DHT22;6031;50.220;10.122;2023-04-01T23:56:51;8.40;99.90
11944;DHT22;6031;50.220;10.122;2023-04-01T23:59:22;8.40;99.90
